createdAt,value
2023-01-09T00:01:59.150Z,5.30
2023-01-09T00:04:25.719Z,7.60
2023-01-09T00:06:55.598Z,6.00
2023-01-09T00:09:25.071Z,7.30
2023-01-09T00:11:54.248Z,4.80
2023-01-09T00:14:22.263Z,4.20
2023-01-09T00:16:49.387Z,5.40
2023-01-09T00:19:15.959Z,7.90
2023-01-09T00:21:42.564Z,6.50
2023-01-09T00:24:09.187Z,5.40
2023-01-09T00:26:36.651Z,8.10
2023-01-09T00:29:03.569Z,7.40
2023-01-09T00:31:30.468Z,6.30
2023-01-09T00:33:59.581Z,5.60
2023-01-09T00:36:26.466Z,8.40
2023-01-09T00:38:53.010Z,7.30
2023-01-09T00:41:25.672Z,6.90
2023-01-09T00:43:54.741Z,6.50
2023-01-09T00:46:22.340Z,5.30
2023-01-09T00:48:49.159Z,8.60
2023-01-09T00:51:16.578Z,6.40
2023-01-09T00:53:43.251Z,6.00
2023-01-09T00:56:13.166Z,6.00
2023-01-09T00:58:39.700Z,5.80
2023-01-09T01:01:06.421Z,5.50
2023-01-09T01:03:33.287Z,6.00
2023-01-09T01:06:19.159Z,4.30
2023-01-09T01:08:45.902Z,5.50
2023-01-09T01:11:12.546Z,5.80
2023-01-09T01:13:40.649Z,7.80
2023-01-09T01:16:10.004Z,6.80
2023-01-09T01:18:37.456Z,7.50
2023-01-09T01:21:06.980Z,8.30
2023-01-09T01:23:34.084Z,5.00
2023-01-09T01:26:14.703Z,5.50
2023-01-09T01:28:41.760Z,5.80
2023-01-09T01:31:08.949Z,6.90
2023-01-09T01:33:35.971Z,6.40
2023-01-09T01:36:04.629Z,7.10
2023-01-09T01:38:32.143Z,8.00
2023-01-09T01:40:59.032Z,6.10
2023-01-09T01:43:25.711Z,4.90
2023-01-09T01:45:52.549Z,4.30
2023-01-09T01:48:27.862Z,7.10
2023-01-09T01:51:02.076Z,7.60
2023-01-09T01:53:32.911Z,4.30
2023-01-09T01:56:05.710Z,3.70
2023-01-09T01:58:33.870Z,2.90
2023-01-09T02:01:00.623Z,7.30
2023-01-09T02:03:29.536Z,5.20
2023-01-09T02:05:56.479Z,5.70
2023-01-09T02:08:23.287Z,4.90
2023-01-09T02:10:50.208Z,6.00
2023-01-09T02:13:17.083Z,4.60
2023-01-09T02:15:51.236Z,4.60
2023-01-09T02:21:13.753Z,3.20
2023-01-09T02:23:48.789Z,4.90
2023-01-09T02:26:34.174Z,5.00
2023-01-09T02:29:35.468Z,4.50
2023-01-09T02:32:04.941Z,5.60
2023-01-09T02:34:52.147Z,4.50
2023-01-09T02:37:36.811Z,5.90
2023-01-09T02:40:19.156Z,5.20
2023-01-09T02:42:45.854Z,3.50
2023-01-09T02:45:12.702Z,3.80
2023-01-09T02:47:42.307Z,6.60
2023-01-09T02:50:13.650Z,3.70
2023-01-09T02:52:55.219Z,6.20
2023-01-09T02:55:40.353Z,5.20
2023-01-09T02:58:10.746Z,3.70
2023-01-09T03:00:57.049Z,6.20
2023-01-09T03:03:51.561Z,6.10
2023-01-09T03:09:14.648Z,4.80
2023-01-09T03:11:47.724Z,7.00
2023-01-09T03:14:16.599Z,3.70
2023-01-09T03:16:46.230Z,5.80
2023-01-09T03:19:17.333Z,3.80
2023-01-09T03:21:44.689Z,5.50
2023-01-09T03:24:11.451Z,5.20
2023-01-09T03:26:38.651Z,6.50
2023-01-09T03:29:05.535Z,6.50
2023-01-09T03:31:32.158Z,5.60
2023-01-09T03:33:58.719Z,5.70
2023-01-09T03:36:25.331Z,5.30
2023-01-09T03:38:51.920Z,6.00
2023-01-09T03:41:19.140Z,4.30
2023-01-09T03:43:47.944Z,4.80
2023-01-09T03:46:17.340Z,5.50
2023-01-09T03:48:43.980Z,3.80
2023-01-09T03:51:10.578Z,3.50
2023-01-09T03:53:38.066Z,3.10
2023-01-09T03:56:04.788Z,5.20
2023-01-09T03:58:31.454Z,5.30
2023-01-09T04:00:59.417Z,4.60
2023-01-09T04:03:26.573Z,6.30
2023-01-09T04:05:53.290Z,5.10
2023-01-09T04:08:20.013Z,5.20
2023-01-09T04:10:47.916Z,3.80
2023-01-09T04:13:29.728Z,4.20
2023-01-09T04:15:56.406Z,6.30
2023-01-09T04:18:23.441Z,6.80
2023-01-09T04:20:50.086Z,4.80
2023-01-09T04:23:16.685Z,5.80
2023-01-09T04:25:43.201Z,5.80
2023-01-09T04:28:09.849Z,5.80
2023-01-09T04:30:37.329Z,5.10
2023-01-09T04:33:03.964Z,5.30
2023-01-09T04:35:30.693Z,3.90
2023-01-09T04:37:58.040Z,6.60
2023-01-09T04:40:24.577Z,5.70
2023-01-09T04:42:51.393Z,5.20
2023-01-09T04:45:18.792Z,4.50
2023-01-09T04:47:45.384Z,5.70
2023-01-09T04:50:12.181Z,5.80
2023-01-09T04:52:39.159Z,6.80
2023-01-09T04:55:07.030Z,3.50
2023-01-09T04:57:34.521Z,6.00
2023-01-09T05:00:01.423Z,5.40
2023-01-09T05:02:28.738Z,5.00
2023-01-09T05:04:55.333Z,4.00
2023-01-09T05:07:22.211Z,5.90
2023-01-09T05:09:49.038Z,6.70
2023-01-09T05:12:15.723Z,5.20
2023-01-09T05:14:42.354Z,3.30
2023-01-09T05:17:08.997Z,4.30
2023-01-09T05:19:38.693Z,7.40
2023-01-09T05:22:05.316Z,5.90
2023-01-09T05:24:31.902Z,5.80
2023-01-09T05:27:02.066Z,6.90
2023-01-09T05:29:28.804Z,6.40
2023-01-09T05:31:55.589Z,7.50
2023-01-09T05:34:22.567Z,6.40
2023-01-09T05:36:49.168Z,4.60
2023-01-09T05:39:15.795Z,9.40
2023-01-09T05:41:42.300Z,4.90
2023-01-09T05:44:08.939Z,5.90
2023-01-09T05:46:36.914Z,6.40
2023-01-09T05:49:03.472Z,4.90
2023-01-09T05:51:33.322Z,4.70
2023-01-09T05:54:00.131Z,4.40
2023-01-09T05:56:26.931Z,5.20
2023-01-09T05:58:53.518Z,6.20
2023-01-09T06:01:22.215Z,5.20
2023-01-09T06:03:50.230Z,4.30
2023-01-09T06:06:17.726Z,5.20
2023-01-09T06:08:45.203Z,4.80
2023-01-09T06:11:12.037Z,5.10
2023-01-09T06:13:38.699Z,3.70
2023-01-09T06:16:06.421Z,6.60
2023-01-09T06:18:33.543Z,4.70
2023-01-09T06:21:00.143Z,6.80
2023-01-09T06:23:26.846Z,6.10
2023-01-09T06:25:53.446Z,5.60
2023-01-09T06:28:20.329Z,8.30
2023-01-09T06:30:50.972Z,7.50
2023-01-09T06:33:17.700Z,7.20
2023-01-09T06:35:44.321Z,6.80
2023-01-09T06:38:11.702Z,6.00
2023-01-09T06:40:38.845Z,5.50
2023-01-09T06:43:06.658Z,6.50
2023-01-09T06:45:33.438Z,6.00
2023-01-09T06:48:00.040Z,5.00
2023-01-09T06:50:26.742Z,6.10
2023-01-09T06:52:53.277Z,7.90
2023-01-09T06:55:19.909Z,7.20
2023-01-09T06:57:46.627Z,6.30
2023-01-09T07:00:13.900Z,4.90
2023-01-09T07:02:41.053Z,6.70
2023-01-09T07:05:08.231Z,5.90
2023-01-09T07:07:34.948Z,5.10
2023-01-09T07:10:06.968Z,5.90
2023-01-09T07:12:33.584Z,7.50
2023-01-09T07:15:00.357Z,4.90
2023-01-09T07:17:26.954Z,5.10
2023-01-09T07:19:53.543Z,5.10
2023-01-09T07:22:20.130Z,3.70
2023-01-09T07:24:46.957Z,3.30
2023-01-09T07:27:15.994Z,4.40
2023-01-09T07:29:42.635Z,5.00
2023-01-09T07:32:09.278Z,6.30
2023-01-09T07:34:35.872Z,5.00
2023-01-09T07:37:03.082Z,6.40
2023-01-09T07:39:29.748Z,5.90
2023-01-09T07:41:56.379Z,7.40
2023-01-09T07:44:23.671Z,4.90
2023-01-09T07:46:50.275Z,4.60
2023-01-09T07:49:16.860Z,7.40
2023-01-09T07:51:44.479Z,5.40
2023-01-09T07:54:12.439Z,5.00
2023-01-09T07:56:39.902Z,7.10
2023-01-09T07:59:06.454Z,5.60
2023-01-09T08:01:34.289Z,7.10
2023-01-09T08:04:00.936Z,4.40
2023-01-09T08:06:29.685Z,5.10
2023-01-09T08:08:57.187Z,4.20
2023-01-09T08:11:24.404Z,5.00
2023-01-09T08:13:51.201Z,5.50
2023-01-09T08:16:17.781Z,5.50
2023-01-09T08:18:44.751Z,4.90
2023-01-09T08:21:11.904Z,7.30
2023-01-09T08:23:38.596Z,7.20
2023-01-09T08:26:05.601Z,5.20
2023-01-09T08:28:32.347Z,5.80
2023-01-09T08:30:58.895Z,6.10
2023-01-09T08:33:26.932Z,7.90
2023-01-09T08:35:53.959Z,4.60
2023-01-09T08:38:21.676Z,4.10
2023-01-09T08:40:48.571Z,5.60
2023-01-09T08:43:33.828Z,6.20
2023-01-09T08:46:18.971Z,5.10
2023-01-09T08:48:47.373Z,6.10
2023-01-09T08:51:14.056Z,4.70
2023-01-09T08:53:40.655Z,5.50
2023-01-09T08:56:07.272Z,5.90
2023-01-09T08:58:34.448Z,4.30
2023-01-09T09:01:05.267Z,4.40
2023-01-09T09:03:32.768Z,5.00
2023-01-09T09:05:59.310Z,7.00
2023-01-09T09:08:28.207Z,5.00
2023-01-09T09:10:56.622Z,4.90
2023-01-09T09:13:24.966Z,7.10
2023-01-09T09:15:51.669Z,5.70
2023-01-09T09:18:18.776Z,5.50
2023-01-09T09:20:45.462Z,6.40
2023-01-09T09:23:12.371Z,5.20
2023-01-09T09:25:39.051Z,4.60
2023-01-09T09:28:06.075Z,6.10
2023-01-09T09:30:32.990Z,6.10
2023-01-09T09:33:02.600Z,6.90
2023-01-09T09:35:30.505Z,5.90
2023-01-09T09:37:58.749Z,4.70
2023-01-09T09:40:54.947Z,5.30
2023-01-09T09:44:02.581Z,5.30
2023-01-09T09:46:47.974Z,5.30
2023-01-09T12:20:16.094Z,6.50
2023-01-09T12:22:58.354Z,4.90
2023-01-09T12:25:37.186Z,7.10
2023-01-09T12:28:14.715Z,6.40
2023-01-09T12:31:00.123Z,3.60
2023-01-09T12:34:11.903Z,3.40
2023-01-09T12:37:19.725Z,5.20
2023-01-09T12:40:14.846Z,4.90
2023-01-09T12:43:04.552Z,4.20
2023-01-09T12:45:38.996Z,6.00
2023-01-09T12:48:09.539Z,6.30
2023-01-09T12:50:56.305Z,4.30
2023-01-09T12:53:30.932Z,4.80
2023-01-09T12:55:57.665Z,5.30
2023-01-09T12:58:41.918Z,5.70
2023-01-09T13:01:13.776Z,4.80
2023-01-09T13:03:45.401Z,4.70
2023-01-09T13:06:15.376Z,5.10
2023-01-09T13:08:47.942Z,4.00
2023-01-09T13:11:28.290Z,4.20
2023-01-09T13:14:04.157Z,4.40
2023-01-09T13:16:41.449Z,3.90
2023-01-09T13:19:15.433Z,4.70
2023-01-09T13:21:42.086Z,5.40
2023-01-09T13:24:35.046Z,5.10
2023-01-09T13:27:05.283Z,4.50
2023-01-09T13:29:37.185Z,4.00
2023-01-09T13:32:22.470Z,2.90
2023-01-09T13:34:53.269Z,4.70
2023-01-09T13:37:31.282Z,3.80
2023-01-09T13:40:00.239Z,4.70
2023-01-09T13:42:36.290Z,4.70
2023-01-09T13:45:25.715Z,5.60
2023-01-09T13:48:08.484Z,2.70
2023-01-09T13:50:35.197Z,3.50
2023-01-09T13:53:17.121Z,5.10
2023-01-09T13:56:10.933Z,3.80
2023-01-09T13:58:37.700Z,4.10
2023-01-09T14:01:26.979Z,5.40
2023-01-09T14:04:08.903Z,4.50
2023-01-09T14:06:35.576Z,4.90
2023-01-09T14:09:13.370Z,6.80
2023-01-09T14:11:43.257Z,5.00
2023-01-09T14:14:30.705Z,5.20
2023-01-09T14:16:58.962Z,6.10
2023-01-09T14:19:35.809Z,5.40
2023-01-09T14:22:02.583Z,7.20
2023-01-09T14:24:41.221Z,5.10
2023-01-09T14:27:46.318Z,5.60
2023-01-09T14:30:25.471Z,3.70
2023-01-09T14:32:57.128Z,4.80
2023-01-09T14:35:27.491Z,3.50
2023-01-09T14:38:33.968Z,3.30
2023-01-09T14:41:45.525Z,3.50
2023-01-09T14:44:19.414Z,3.30
2023-01-09T14:49:29.937Z,6.70
2023-01-09T14:54:31.684Z,4.40
2023-01-09T14:56:58.340Z,4.00
2023-01-09T14:59:24.961Z,4.10
2023-01-09T15:01:54.665Z,5.30
2023-01-09T15:04:35.868Z,4.20
2023-01-09T15:07:02.901Z,6.00
2023-01-09T15:09:32.920Z,5.30
2023-01-09T15:12:03.870Z,4.50
2023-01-09T15:14:35.727Z,5.80
2023-01-09T15:17:02.622Z,4.00
2023-01-09T15:19:29.818Z,5.40
2023-01-09T15:22:05.333Z,4.60
2023-01-09T15:24:35.075Z,5.40
2023-01-09T15:27:04.866Z,5.60
2023-01-09T15:29:32.247Z,4.30
2023-01-09T15:32:09.399Z,5.30
2023-01-09T15:34:39.279Z,5.90
2023-01-09T15:37:24.321Z,8.00
2023-01-09T15:39:51.058Z,6.60
2023-01-09T15:42:44.329Z,6.00
2023-01-09T15:45:40.771Z,6.20
2023-01-09T15:48:28.792Z,5.60
2023-01-09T15:51:12.904Z,6.40
2023-01-09T15:53:40.305Z,6.30
2023-01-09T15:56:24.448Z,4.50
2023-01-09T15:58:52.214Z,5.40
2023-01-09T16:01:31.349Z,5.10
2023-01-09T16:04:05.256Z,5.20
2023-01-09T16:06:34.452Z,6.50
2023-01-09T16:09:01.082Z,5.40
2023-01-09T16:11:35.505Z,7.30
2023-01-09T16:14:13.008Z,7.80
2023-01-09T16:16:40.355Z,5.50
2023-01-09T16:19:31.085Z,7.40
2023-01-09T16:21:59.394Z,5.30
2023-01-09T16:24:28.131Z,5.90
2023-01-09T16:27:28.175Z,5.40
2023-01-09T16:30:19.449Z,4.50
2023-01-09T16:32:47.203Z,6.30
2023-01-09T16:35:15.216Z,8.90
2023-01-09T16:37:41.899Z,6.90
2023-01-09T16:40:17.705Z,6.00
2023-01-09T16:42:59.795Z,5.20
2023-01-09T16:45:47.347Z,4.30
2023-01-09T16:48:20.541Z,6.10
2023-01-09T16:50:47.458Z,5.80
2023-01-09T16:53:23.422Z,7.00
2023-01-09T16:55:50.671Z,7.00
2023-01-09T16:58:30.856Z,6.00
2023-01-09T17:00:58.024Z,6.20
2023-01-09T17:03:24.960Z,5.50
2023-01-09T17:05:53.599Z,7.20
2023-01-09T17:08:21.619Z,7.00
2023-01-09T17:10:49.969Z,5.20
2023-01-09T17:13:16.525Z,4.80
2023-01-09T17:15:43.896Z,6.50
2023-01-09T17:18:21.136Z,7.20
2023-01-09T17:20:49.620Z,7.10
2023-01-09T17:23:17.095Z,6.50
2023-01-09T17:26:02.768Z,6.50
2023-01-09T17:28:32.602Z,4.70
2023-01-09T17:31:08.448Z,5.40
2023-01-09T17:33:35.738Z,4.50
2023-01-09T17:36:03.352Z,3.80
2023-01-09T17:38:30.721Z,5.50
2023-01-09T17:40:57.545Z,7.10
2023-01-09T17:43:24.153Z,4.10
2023-01-09T22:03:44.658Z,1.30
2023-01-09T22:06:11.412Z,1.40
2023-01-09T22:08:38.137Z,1.20
2023-01-09T22:11:04.837Z,1.70
2023-01-09T22:13:32.113Z,2.40
2023-01-09T22:16:03.299Z,1.40
2023-01-09T22:18:30.028Z,1.90
2023-01-09T22:20:56.706Z,1.50
2023-01-09T22:23:23.446Z,1.60
2023-01-09T22:25:50.033Z,1.80
2023-01-09T22:28:17.234Z,1.30
2023-01-09T22:30:43.831Z,1.70
2023-01-09T22:33:11.665Z,1.30
2023-01-09T22:35:39.392Z,2.00
2023-01-09T22:38:06.698Z,2.10
2023-01-09T22:40:36.582Z,1.70
2023-01-09T22:43:03.629Z,1.40
2023-01-09T22:45:31.267Z,1.70
2023-01-09T22:47:57.879Z,2.10
2023-01-09T22:50:24.635Z,2.00
2023-01-09T22:52:51.279Z,1.60
2023-01-09T22:55:17.948Z,1.70
2023-01-09T22:57:44.671Z,1.20
2023-01-09T23:00:12.347Z,1.60
2023-01-09T23:02:38.945Z,1.90
2023-01-09T23:05:06.260Z,1.80
2023-01-09T23:07:33.180Z,1.60
2023-01-09T23:10:01.468Z,1.80
2023-01-09T23:12:28.937Z,1.40
2023-01-09T23:14:55.527Z,1.10
2023-01-09T23:17:22.010Z,1.00
2023-01-09T23:19:48.697Z,1.70
2023-01-09T23:22:15.492Z,1.70
2023-01-09T23:24:42.108Z,1.60
2023-01-09T23:27:09.419Z,2.00
2023-01-09T23:29:38.558Z,1.70
2023-01-09T23:32:06.542Z,1.40
2023-01-09T23:34:33.593Z,1.50
2023-01-09T23:37:00.551Z,1.20
2023-01-09T23:39:27.296Z,1.90
2023-01-09T23:42:12.778Z,1.50
